Time;durP1;ratioP1;P1;durP2;ratioP2;P2;SDS_P1;SDS_P2;PMS_P1;PMS_P2;Temp;Humidity;BMP_temperature;BMP_pressure;BME280_temperature;BME280_humidity;BME280_pressure;Samples;Min_cycle;Max_cycle;Signal;HPM_P1;HPM_P2
2021/04/04 00:00:38;;;;;;;24.20;5.97;;;5.70;99.90;;;;;;4147145;28;20049;-81
2021/04/04 00:02:40;;;;;;;21.95;6.78;;;5.80;99.90;;;;;;4146889;28;20029;-81
2021/04/04 00:04:41;;;;;;;23.65;6.43;;;5.80;99.90;;;;;;4145819;28;20030;-81
2021/04/04 00:06:41;;;;;;;18.45;6.20;;;5.80;99.90;;;;;;4146268;28;20032;-81
2021/04/04 00:08:42;;;;;;;21.83;6.47;;;5.80;99.90;;;;;;4144138;28;20022;-81
2021/04/04 00:10:43;;;;;;;27.20;6.50;;;5.80;99.90;;;;;;4144214;28;20108;-81
2021/04/04 00:12:44;;;;;;;22.30;6.30;;;5.80;99.90;;;;;;4144033;28;20075;-80
2021/04/04 00:14:45;;;;;;;25.55;6.63;;;5.80;99.90;;;;;;4145554;28;20152;-81
2021/04/04 00:16:45;;;;;;;15.52;5.63;;;5.80;99.90;;;;;;4143695;28;20590;-81
2021/04/04 00:18:46;;;;;;;17.55;5.50;;;5.80;99.90;;;;;;4142289;28;20041;-81
2021/04/04 00:20:47;;;;;;;25.10;6.65;;;5.80;99.90;;;;;;4143881;28;20032;-81
2021/04/04 00:22:48;;;;;;;20.35;5.45;;;5.80;99.90;;;;;;4144119;28;20109;-80
2021/04/04 00:24:49;;;;;;;16.02;5.97;;;5.80;99.90;;;;;;4145062;28;20039;-81
2021/04/04 00:26:49;;;;;;;24.48;6.40;;;5.80;99.90;;;;;;4143716;28;20030;-81
2021/04/04 00:28:50;;;;;;;21.77;6.35;;;5.80;99.90;;;;;;4143397;28;20022;-81
2021/04/04 00:30:50;;;;;;;20.67;6.22;;;5.80;99.90;;;;;;4143715;28;20109;-81
2021/04/04 00:32:51;;;;;;;31.33;6.85;;;5.80;99.90;;;;;;4146348;28;20121;-81
2021/04/04 00:34:52;;;;;;;25.60;6.30;;;5.80;99.90;;;;;;4145500;28;20022;-80
2021/04/04 00:36:53;;;;;;;15.30;7.00;;;5.80;99.90;;;;;;4146567;28;20026;-81
2021/04/04 00:38:53;;;;;;;16.05;5.65;;;5.80;99.90;;;;;;4145531;28;20026;-81
2021/04/04 00:40:54;;;;;;;26.17;5.72;;;5.90;99.90;;;;;;4145375;28;20026;-81
2021/04/04 00:42:56;;;;;;;22.00;8.07;;;5.90;99.90;;;;;;4145333;28;20124;-81
2021/04/04 00:44:56;;;;;;;30.00;6.45;;;5.90;99.90;;;;;;4145013;28;20038;-81
2021/04/04 00:46:57;;;;;;;18.10;6.82;;;5.80;99.90;;;;;;4146497;28;20036;-81
2021/04/04 00:48:58;;;;;;;17.55;6.07;;;5.80;99.90;;;;;;4146591;28;20038;-81
2021/04/04 00:50:59;;;;;;;30.85;6.15;;;5.80;99.90;;;;;;4145275;28;21373;-81
2021/04/04 00:53:01;;;;;;;19.40;7.00;;;5.80;99.90;;;;;;4144799;28;20083;-81
2021/04/04 00:55:02;;;;;;;22.63;8.50;;;5.90;99.90;;;;;;4146158;28;20026;-82
2021/04/04 00:57:03;;;;;;;21.02;6.07;;;5.90;99.90;;;;;;4146407;28;20033;-81
2021/04/04 00:59:04;;;;;;;20.35;6.70;;;5.80;99.90;;;;;;4145352;28;20569;-81
2021/04/04 01:01:06;;;;;;;17.33;6.45;;;5.80;99.90;;;;;;4145111;28;20041;-81
2021/04/04 01:03:07;;;;;;;23.52;6.22;;;5.80;99.90;;;;;;4146097;28;20029;-81
2021/04/04 01:05:11;;;;;;;21.85;6.20;;;5.80;99.90;;;;;;4145101;28;20032;-80
2021/04/04 01:07:11;;;;;;;21.98;5.32;;;5.80;99.90;;;;;;4146200;28;20481;-82
2021/04/04 01:09:12;;;;;;;24.02;7.90;;;5.80;99.90;;;;;;4145182;28;20030;-80
2021/04/04 01:11:18;;;;;;;24.00;7.28;;;5.80;99.90;;;;;;4145041;28;20068;-80
2021/04/04 01:13:57;;;;;;;19.92;6.30;;;5.80;99.90;;;;;;4146557;28;20512;-81
2021/04/04 01:16:09;;;;;;;23.75;6.72;;;5.80;99.90;;;;;;4144790;28;20066;-80
2021/04/04 01:18:37;;;;;;;19.95;5.88;;;5.80;99.90;;;;;;4144495;28;20141;-80
2021/04/04 01:20:49;;;;;;;13.02;5.80;;;5.80;99.90;;;;;;4133658;28;20393;-80
2021/04/04 01:23:03;;;;;;;19.67;6.50;;;5.80;99.90;;;;;;4144903;28;20049;-80
2021/04/04 01:25:14;;;;;;;24.10;6.68;;;5.80;99.90;;;;;;4144624;28;20041;-81
2021/04/04 01:27:52;;;;;;;24.35;6.53;;;5.80;99.90;;;;;;4144935;28;20480;-81
2021/04/04 01:29:54;;;;;;;16.23;5.70;;;5.70;99.90;;;;;;4145027;28;20061;-81
2021/04/04 01:31:56;;;;;;;21.90;7.63;;;5.70;99.90;;;;;;4145108;28;20033;-81
2021/04/04 01:33:58;;;;;;;16.70;5.20;;;5.80;99.90;;;;;;4146172;28;20037;-81
2021/04/04 01:36:01;;;;;;;20.08;6.30;;;5.80;99.90;;;;;;4146348;28;20468;-81
2021/04/04 01:38:10;;;;;;;;;;;5.80;99.90;;;;;;4145070;28;20449;-81
2021/04/04 01:40:15;;;;;;;27.67;6.00;;;5.80;99.90;;;;;;4145012;28;19949;-80
2021/04/04 01:42:17;;;;;;;17.50;5.35;;;5.70;99.90;;;;;;4159078;28;20049;-81
2021/04/04 01:44:21;;;;;;;24.35;7.72;;;5.70;99.90;;;;;;4149934;28;20528;-81
2021/04/04 01:46:22;;;;;;;21.90;6.35;;;5.80;99.90;;;;;;4148146;28;20129;-81
2021/04/04 01:48:23;;;;;;;15.20;5.53;;;5.80;99.90;;;;;;4165585;28;20022;-81
2021/04/04 01:50:26;;;;;;;15.57;5.95;;;5.80;99.90;;;;;;4148056;28;20088;-81
2021/04/04 01:52:27;;;;;;;12.10;5.85;;;5.90;99.90;;;;;;4165606;28;20330;-81
2021/04/04 01:54:30;;;;;;;16.55;6.22;;;5.90;99.90;;;;;;4164207;28;20472;-81
2021/04/04 01:56:32;;;;;;;10.05;5.07;;;5.90;99.90;;;;;;4165420;28;20369;-81
2021/04/04 01:58:34;;;;;;;24.98;8.05;;;5.90;99.90;;;;;;4147907;28;20096;-81
2021/04/04 02:00:36;;;;;;;23.08;5.95;;;6.00;99.90;;;;;;4148025;28;20212;-81
2021/04/04 02:02:37;;;;;;;19.92;6.90;;;6.00;99.90;;;;;;4165178;28;20029;-80
2021/04/04 02:04:39;;;;;;;14.95;6.47;;;5.90;99.90;;;;;;4147552;28;20046;-81
2021/04/04 02:06:43;;;;;;;13.93;5.57;;;5.90;99.90;;;;;;4165197;28;20420;-81
2021/04/04 02:08:45;;;;;;;12.93;5.85;;;5.90;99.90;;;;;;4165299;28;20108;-81
2021/04/04 02:10:46;;;;;;;11.43;5.40;;;5.90;99.90;;;;;;4147398;28;20033;-80
2021/04/04 02:12:48;;;;;;;20.35;5.68;;;5.90;99.90;;;;;;4163518;28;20021;-81
2021/04/04 02:14:50;;;;;;;19.13;4.50;;;5.90;99.90;;;;;;4163482;28;20030;-81
2021/04/04 02:16:54;;;;;;;19.85;5.95;;;5.90;99.90;;;;;;4163481;28;20095;-81
2021/04/04 02:18:54;;;;;;;;;;;5.90;99.90;;;;;;4162341;28;20542;-81
2021/04/04 02:20:57;;;;;;;20.35;5.65;;;5.90;99.90;;;;;;4155570;28;19971;-81
2021/04/04 02:23:04;;;;;;;12.25;4.50;;;5.90;99.90;;;;;;4163287;28;20025;-81
2021/04/04 02:25:07;;;;;;;17.05;5.22;;;5.90;99.90;;;;;;4145160;28;20026;-81
2021/04/04 02:27:08;;;;;;;25.13;5.72;;;5.90;99.90;;;;;;4145688;28;20022;-81
2021/04/04 02:29:09;;;;;;;11.98;4.72;;;5.90;99.90;;;;;;4162819;28;20071;-80
2021/04/04 02:31:13;;;;;;;16.30;4.93;;;5.90;99.90;;;;;;4145414;28;20033;-81
2021/04/04 02:33:28;;;;;;;18.15;5.20;;;5.90;99.90;;;;;;4163029;28;20117;-81
2021/04/04 02:35:36;;;;;;;13.48;5.10;;;5.90;99.90;;;;;;4163593;28;20025;-81
2021/04/04 02:37:38;;;;;;;22.13;5.25;;;5.90;99.90;;;;;;4164089;28;20044;-81
2021/04/04 02:39:45;;;;;;;21.80;5.25;;;5.90;99.90;;;;;;4164573;28;20484;-81
2021/04/04 02:41:47;;;;;;;17.85;4.97;;;5.90;99.90;;;;;;4163915;28;20043;-81
2021/04/04 02:43:50;;;;;;;18.75;5.35;;;5.80;99.90;;;;;;4145266;28;20029;-81
2021/04/04 02:45:54;;;;;;;16.08;5.05;;;5.80;99.90;;;;;;4162982;28;20037;-81
2021/04/04 02:48:15;;;;;;;18.92;4.60;;;5.80;99.90;;;;;;4146833;28;20037;-81
2021/04/04 02:50:17;;;;;;;22.73;5.22;;;5.80;99.90;;;;;;4162373;28;20461;-81
2021/04/04 02:52:20;;;;;;;16.80;6.22;;;5.80;99.90;;;;;;4161355;28;20109;-81
2021/04/04 02:54:24;;;;;;;25.10;5.50;;;5.80;99.90;;;;;;4145990;28;20021;-81
2021/04/04 02:56:27;;;;;;;28.88;8.82;;;5.80;99.90;;;;;;4164106;28;20440;-80
2021/04/04 02:58:30;;;;;;;17.73;5.75;;;5.80;99.90;;;;;;4164233;28;20099;-80
2021/04/04 03:00:31;;;;;;;21.90;6.32;;;5.80;99.90;;;;;;4164075;28;20126;-80
2021/04/04 03:02:32;;;;;;;19.25;5.40;;;5.80;99.90;;;;;;4145233;28;20046;-81
2021/04/04 03:04:36;;;;;;;16.90;5.13;;;5.80;99.90;;;;;;4146155;28;20500;-81
2021/04/04 03:06:41;;;;;;;23.17;5.65;;;5.90;99.90;;;;;;4143834;28;20595;-80
2021/04/04 03:08:46;;;;;;;14.02;5.45;;;5.90;99.90;;;;;;4146192;28;20038;-81
2021/04/04 03:10:51;;;;;;;21.90;6.68;;;5.80;99.90;;;;;;4146152;28;20554;-80
2021/04/04 03:12:52;;;;;;;14.85;5.97;;;5.80;99.90;;;;;;4145171;28;20405;-81
2021/04/04 03:14:57;;;;;;;13.60;4.85;;;5.80;99.90;;;;;;4163681;28;20040;-80
2021/04/04 03:16:59;;;;;;;14.10;5.07;;;5.80;99.90;;;;;;4146218;28;20456;-80
2021/04/04 03:19:02;;;;;;;16.77;5.30;;;5.80;99.90;;;;;;4129927;28;20045;-80
2021/04/04 03:21:04;;;;;;;15.40;5.05;;;5.80;99.90;;;;;;4146042;28;20041;-80
2021/04/04 03:23:06;;;;;;;18.58;4.78;;;5.80;99.90;;;;;;4163880;28;20029;-81
2021/04/04 03:25:08;;;;;;;23.55;7.65;;;5.80;99.90;;;;;;4144575;28;20485;-80
2021/04/04 03:27:11;;;;;;;18.15;5.85;;;5.80;99.90;;;;;;4162368;28;20036;-81
2021/04/04 03:29:12;;;;;;;22.80;6.00;;;5.90;99.90;;;;;;4145941;28;20140;-81
2021/04/04 03:31:16;;;;;;;29.67;5.63;;;5.90;99.90;;;;;;4163807;28;20388;-82
2021/04/04 03:33:20;;;;;;;13.63;5.00;;;5.80;99.90;;;;;;4163607;28;20030;-81
2021/04/04 03:35:21;;;;;;;23.75;5.40;;;5.80;99.90;;;;;;4163802;28;20041;-81
2021/04/04 03:37:23;;;;;;;13.32;5.43;;;5.80;99.90;;;;;;4132301;28;20082;-80
2021/04/04 03:39:26;;;;;;;22.02;5.85;;;5.80;99.90;;;;;;4145075;28;20034;-80
2021/04/04 03:41:28;;;;;;;18.15;5.28;;;5.90;99.90;;;;;;4163321;28;20587;-81
2021/04/04 03:43:32;;;;;;;20.50;5.88;;;5.80;99.90;;;;;;4163715;28;20449;-81
2021/04/04 03:45:33;;;;;;;26.70;6.50;;;5.80;99.90;;;;;;4146093;28;20026;-81
2021/04/04 03:47:36;;;;;;;22.63;5.60;;;5.80;99.90;;;;;;4163566;28;20025;-81
2021/04/04 03:49:39;;;;;;;15.85;5.28;;;5.80;99.90;;;;;;4146296;28;20026;-82
2021/04/04 03:51:40;;;;;;;17.73;6.95;;;5.80;99.90;;;;;;4146120;28;20041;-81
2021/04/04 03:53:45;;;;;;;20.98;5.70;;;5.80;99.90;;;;;;4144352;28;20030;-81
2021/04/04 03:55:51;;;;;;;20.02;6.35;;;5.80;99.90;;;;;;4145958;28;20448;-81
2021/04/04 03:57:52;;;;;;;19.08;6.25;;;5.80;99.90;;;;;;4163304;28;20026;-81
2021/04/04 03:59:54;;;;;;;20.67;6.93;;;5.80;99.90;;;;;;4163287;28;20033;-81
2021/04/04 04:01:56;;;;;;;22.02;5.43;;;5.70;99.90;;;;;;4163518;28;20037;-81
2021/04/04 04:04:00;;;;;;;13.40;4.65;;;5.80;99.90;;;;;;4144783;28;20544;-81
2021/04/04 04:06:01;;;;;;;14.35;4.78;;;5.70;99.90;;;;;;4129048;28;20042;-81
2021/04/04 04:08:02;;;;;;;17.40;5.28;;;5.80;99.90;;;;;;4163136;28;20037;-81
2021/04/04 04:10:04;;;;;;;31.40;7.47;;;5.80;99.90;;;;;;4145975;28;20056;-81
2021/04/04 04:12:07;;;;;;;16.80;5.15;;;5.80;99.90;;;;;;4163398;28;20098;-80
2021/04/04 04:14:11;;;;;;;19.50;5.47;;;5.80;99.90;;;;;;4145240;28;20060;-80
2021/04/04 04:16:16;;;;;;;13.68;4.95;;;5.80;99.90;;;;;;4145857;28;20042;-80
2021/04/04 04:18:17;;;;;;;16.77;5.00;;;5.70;99.90;;;;;;4145185;28;20464;-80
2021/04/04 04:20:18;;;;;;;16.83;5.10;;;5.70;99.90;;;;;;4144496;28;20026;-80
2021/04/04 04:22:23;;;;;;;16.08;5.15;;;5.70;99.90;;;;;;4145288;28;20045;-80
2021/04/04 04:24:24;;;;;;;20.80;4.72;;;5.70;99.90;;;;;;4162589;28;20045;-81
2021/04/04 04:26:26;;;;;;;13.65;4.72;;;5.70;99.90;;;;;;4163215;28;20179;-80
2021/04/04 04:28:27;;;;;;;15.65;5.20;;;5.70;99.90;;;;;;4145543;28;20113;-80
2021/04/04 04:30:28;;;;;;;15.52;5.22;;;5.70;99.90;;;;;;4162358;28;20079;-80
2021/04/04 04:32:32;;;;;;;22.98;4.30;;;5.70;99.90;;;;;;4144253;28;20022;-80
2021/04/04 04:34:33;;;;;;;13.10;5.80;;;5.70;99.90;;;;;;4163045;28;20461;-81
2021/04/04 04:36:35;;;;;;;30.60;5.45;;;5.80;99.90;;;;;;4145052;28;20034;-80
2021/04/04 04:38:39;;;;;;;17.85;5.40;;;5.80;99.90;;;;;;4144721;28;20065;-81
2021/04/04 04:40:41;;;;;;;18.60;5.28;;;5.80;99.90;;;;;;4161355;28;20060;-81
2021/04/04 04:42:45;;;;;;;17.50;4.60;;;5.80;99.90;;;;;;4144877;28;20046;-81
2021/04/04 04:44:49;;;;;;;19.02;4.60;;;5.70;99.90;;;;;;4144826;28;20462;-81
2021/04/04 04:46:50;;;;;;;26.15;7.25;;;5.70;99.90;;;;;;4162925;28;20040;-81
2021/04/04 04:48:51;;;;;;;19.33;5.05;;;5.70;99.90;;;;;;4162747;28;20036;-81
2021/04/04 04:50:52;;;;;;;17.40;4.80;;;5.70;99.90;;;;;;4162989;28;20040;-81
2021/04/04 04:52:54;;;;;;;17.38;5.22;;;5.70;99.90;;;;;;4160955;28;20120;-80
2021/04/04 04:54:54;;;;;;;14.25;4.53;;;5.80;99.90;;;;;;4145413;28;20541;-80
2021/04/04 04:56:56;;;;;;;22.25;5.75;;;5.80;99.90;;;;;;4143621;28;20084;-81
2021/04/04 04:58:59;;;;;;;16.17;5.55;;;5.90;99.90;;;;;;4163103;28;20042;-81
2021/04/04 05:01:05;;;;;;;19.77;5.53;;;5.90;99.90;;;;;;4162476;28;20033;-80
2021/04/04 05:03:06;;;;;;;22.13;5.18;;;6.00;99.90;;;;;;4144277;28;20026;-80
2021/04/04 05:05:08;;;;;;;14.45;4.72;;;5.90;99.90;;;;;;4145101;28;20037;-80
2021/04/04 05:07:10;;;;;;;17.70;4.75;;;5.80;99.90;;;;;;4162529;28;20042;-81
2021/04/04 05:09:12;;;;;;;14.13;4.70;;;5.80;99.90;;;;;;4162831;28;20036;-81
2021/04/04 05:11:15;;;;;;;21.65;5.07;;;5.80;99.90;;;;;;4144927;28;20121;-81
2021/04/04 05:13:17;;;;;;;10.25;3.88;;;5.70;99.90;;;;;;4144807;28;20065;-81
2021/04/04 05:15:24;;;;;;;11.18;4.65;;;5.70;99.90;;;;;;4146251;28;20030;-80
2021/04/04 05:17:25;;;;;;;12.07;4.05;;;5.60;99.90;;;;;;4147689;28;20034;-80
2021/04/04 05:19:28;;;;;;;13.18;5.20;;;5.60;99.90;;;;;;4165340;28;20079;-81
2021/04/04 05:21:29;;;;;;;;;;;5.70;99.90;;;;;;4149021;28;20481;-80
2021/04/04 05:23:30;;;;;;;19.05;4.00;;;5.70;99.90;;;;;;4165715;28;20353;-80
2021/04/04 05:25:32;;;;;;;12.40;5.30;;;5.70;99.90;;;;;;4165801;28;20065;-80
2021/04/04 05:27:34;;;;;;;20.60;4.82;;;5.70;99.90;;;;;;4148081;28;20413;-81
2021/04/04 05:29:34;;;;;;;21.60;5.30;;;5.70;99.90;;;;;;4148385;28;20030;-80
2021/04/04 05:31:53;;;;;;;13.65;5.03;;;5.70;99.90;;;;;;4165256;28;20030;-80
2021/04/04 05:33:55;;;;;;;13.38;5.00;;;5.80;99.90;;;;;;4148231;28;20049;-80
2021/04/04 05:36:01;;;;;;;17.40;4.75;;;5.90;99.90;;;;;;4147809;28;20034;-80
2021/04/04 05:38:02;;;;;;;10.85;4.88;;;5.90;99.90;;;;;;4165254;28;20385;-79
2021/04/04 05:40:03;;;;;;;20.08;5.30;;;5.90;99.90;;;;;;4147803;28;20076;-82
2021/04/04 05:42:06;;;;;;;21.52;5.53;;;5.90;99.90;;;;;;4147584;28;20390;-81
2021/04/04 05:44:09;;;;;;;19.20;5.28;;;5.90;99.90;;;;;;4165460;28;20802;-79
2021/04/04 05:46:40;;;;;;;15.93;5.80;;;5.90;99.90;;;;;;4147787;28;20058;-80
2021/04/04 05:49:03;;;;;;;14.15;4.32;;;6.00;99.90;;;;;;4135338;28;20071;-81
2021/04/04 05:51:20;;;;;;;18.08;4.88;;;6.00;99.90;;;;;;4164990;28;20030;-80
2021/04/04 05:53:27;;;;;;;12.77;4.90;;;5.90;99.90;;;;;;4147480;28;20042;-80
2021/04/04 05:55:57;;;;;;;10.82;4.97;;;6.00;99.90;;;;;;4147893;28;20505;-80
2021/04/04 05:58:04;;;;;;;13.35;4.07;;;6.10;99.90;;;;;;4131682;28;20038;-81
2021/04/04 06:00:08;;;;;;;12.73;5.22;;;6.00;99.90;;;;;;4164884;28;20029;-81
2021/04/04 06:02:24;;;;;;;17.55;4.75;;;6.10;99.90;;;;;;4165122;28;20033;-81
2021/04/04 06:04:53;;;;;;;15.27;4.50;;;6.10;99.90;;;;;;4147528;28;20041;-82
2021/04/04 06:07:21;;;;;;;8.07;4.03;;;6.10;99.90;;;;;;4121159;28;20025;-81
2021/04/04 06:09:42;;;;;;;10.52;5.90;;;6.00;99.90;;;;;;4164873;28;20476;-81
2021/04/04 06:11:51;;;;;;;18.33;4.55;;;6.10;99.90;;;;;;4147525;28;20470;-81
2021/04/04 06:14:07;;;;;;;16.00;5.00;;;6.10;99.90;;;;;;4164831;28;20026;-81
2021/04/04 06:16:29;;;;;;;16.48;4.93;;;6.10;99.90;;;;;;4147327;28;20061;-81
2021/04/04 06:18:55;;;;;;;16.42;4.80;;;6.10;99.90;;;;;;4151472;28;20033;-81
2021/04/04 06:21:22;;;;;;;23.10;6.05;;;6.20;99.90;;;;;;4161503;28;20377;-81
2021/04/04 06:23:31;;;;;;;15.18;4.68;;;6.20;99.90;;;;;;4147927;28;20041;-81
2021/04/04 06:26:05;;;;;;;17.13;5.53;;;6.20;99.90;;;;;;4164851;28;20115;-81
2021/04/04 06:28:45;;;;;;;16.27;5.05;;;6.20;99.90;;;;;;4146417;28;20393;-80
2021/04/04 06:31:26;;;;;;;13.35;5.00;;;6.30;99.90;;;;;;4145721;28;20053;-81
2021/04/04 06:33:32;;;;;;;13.23;5.25;;;6.30;99.90;;;;;;4109337;28;20034;-81
2021/04/04 06:35:38;;;;;;;11.27;4.53;;;6.20;99.90;;;;;;4161695;28;20572;-81
2021/04/04 06:37:57;;;;;;;23.25;7.65;;;6.20;99.90;;;;;;4146090;28;20026;-81
2021/04/04 06:40:04;;;;;;;12.45;4.43;;;6.20;99.90;;;;;;4163406;28;20179;-80
2021/04/04 06:42:19;;;;;;;12.75;4.40;;;6.30;99.90;;;;;;4145522;28;20049;-80
2021/04/04 06:45:07;;;;;;;14.52;5.30;;;6.30;99.90;;;;;;4163583;28;20025;-80
2021/04/04 06:47:22;;;;;;;12.15;4.93;;;6.30;99.90;;;;;;4095737;28;20039;-80
2021/04/04 06:49:40;;;;;;;14.95;5.10;;;6.40;99.90;;;;;;4084972;28;20094;-80
2021/04/04 06:51:49;;;;;;;8.55;4.35;;;6.40;99.90;;;;;;4112268;28;20026;-80
2021/04/04 06:55:00;;;;;;;13.30;4.95;;;6.40;99.90;;;;;;4163872;28;20033;-80
2021/04/04 06:57:26;;;;;;;14.02;5.25;;;6.40;99.90;;;;;;4041956;29;20037;-81
2021/04/04 06:59:42;;;;;;;7.32;4.00;;;6.40;99.90;;;;;;4063883;29;20481;-81
2021/04/04 07:02:08;;;;;;;11.55;4.20;;;6.40;99.90;;;;;;4081818;29;20028;-81
2021/04/04 07:04:41;;;;;;;15.32;4.38;;;6.50;99.90;;;;;;4096692;29;20057;-82
2021/04/04 07:07:19;;;;;;;14.27;4.38;;;6.40;99.90;;;;;;4147678;28;20115;-82
2021/04/04 07:09:42;;;;;;;13.40;5.53;;;6.50;99.90;;;;;;4130388;28;20054;-81
2021/04/04 07:12:04;;;;;;;7.78;4.10;;;6.40;99.90;;;;;;4147477;28;20143;-80
2021/04/04 07:14:42;;;;;;;16.33;4.22;;;6.50;99.90;;;;;;4147709;28;20040;-81
2021/04/04 07:16:58;;;;;;;14.63;5.03;;;6.50;99.90;;;;;;4135434;28;20034;-81
2021/04/04 07:19:25;;;;;;;12.50;4.32;;;6.40;99.90;;;;;;4129510;28;20497;-81
2021/04/04 07:21:42;;;;;;;14.05;4.22;;;6.50;99.90;;;;;;4129758;28;20037;-81
2021/04/04 07:24:06;;;;;;;15.00;5.15;;;6.50;99.90;;;;;;4129462;28;20042;-82
2021/04/04 07:26:36;;;;;;;17.33;4.78;;;6.50;99.90;;;;;;4129524;28;20037;-81
2021/04/04 07:29:15;;;;;;;7.13;4.32;;;6.50;99.90;;;;;;4129900;28;20026;-82
2021/04/04 07:31:17;;;;;;;11.93;5.13;;;6.60;99.90;;;;;;4160066;28;20087;-81
2021/04/04 07:33:36;;;;;;;11.73;4.00;;;6.50;99.90;;;;;;4145991;28;20568;-81
2021/04/04 07:36:02;;;;;;;14.15;4.43;;;6.60;99.90;;;;;;4146036;28;20030;-80
2021/04/04 07:38:22;;;;;;;10.70;4.03;;;6.60;99.90;;;;;;4123999;28;20030;-80
2021/04/04 07:40:45;;;;;;;8.35;4.20;;;6.80;99.90;;;;;;4145529;28;20026;-80
2021/04/04 07:43:01;;;;;;;13.55;5.10;;;6.80;99.90;;;;;;4144962;28;20104;-81
2021/04/04 07:45:25;;;;;;;9.77;4.32;;;6.80;99.90;;;;;;4145411;28;20396;-80
2021/04/04 07:47:58;;;;;;;21.85;5.57;;;6.90;99.90;;;;;;4144249;28;20046;-80
2021/04/04 07:50:03;;;;;;;5.57;4.60;;;6.90;99.90;;;;;;4144364;28;20038;-80
2021/04/04 07:52:13;;;;;;;8.63;4.70;;;6.90;99.90;;;;;;4144977;28;20113;-79
2021/04/04 07:54:37;;;;;;;13.23;4.68;;;6.90;99.90;;;;;;4144371;28;20505;-80
2021/04/04 07:56:46;;;;;;;10.18;4.57;;;7.00;99.90;;;;;;4145201;28;20026;-80
2021/04/04 07:59:09;;;;;;;14.02;4.70;;;7.10;99.90;;;;;;4151656;28;20049;-81
2021/04/04 08:01:24;;;;;;;6.65;4.45;;;7.20;99.90;;;;;;4150480;28;20022;-81
2021/04/04 08:03:36;;;;;;;8.63;4.60;;;7.10;99.90;;;;;;4162242;28;20033;-80
2021/04/04 08:05:47;;;;;;;6.85;5.20;;;7.20;99.90;;;;;;4145013;28;20022;-80
2021/04/04 08:07:50;;;;;;;11.40;5.55;;;7.10;99.90;;;;;;4128162;28;20097;-81
2021/04/04 08:10:09;;;;;;;8.73;5.45;;;7.00;99.90;;;;;;4160087;28;20034;-81
2021/04/04 08:12:36;;;;;;;10.68;4.80;;;7.00;99.90;;;;;;4161848;28;20052;-82
2021/04/04 08:14:53;;;;;;;10.80;4.88;;;7.00;99.90;;;;;;4162316;28;20029;-81
2021/04/04 08:16:58;;;;;;;5.22;3.72;;;7.10;99.90;;;;;;4143910;28;20080;-82
2021/04/04 08:18:59;;;;;;;6.93;4.47;;;7.20;99.90;;;;;;4161741;28;20030;-82
2021/04/04 08:21:07;;;;;;;8.93;4.55;;;7.20;99.90;;;;;;4145464;28;20034;-81
2021/04/04 08:23:15;;;;;;;10.60;5.15;;;7.30;99.90;;;;;;4159816;28;20188;-80
2021/04/04 08:25:24;;;;;;;8.05;4.30;;;7.30;99.90;;;;;;4139802;28;20030;-83
2021/04/04 08:27:46;;;;;;;10.15;5.07;;;7.40;99.90;;;;;;4163497;28;20075;-82
2021/04/04 08:29:59;;;;;;;5.57;3.47;;;7.40;99.90;;;;;;4146872;28;20481;-81
2021/04/04 08:32:05;;;;;;;6.03;4.03;;;7.50;99.90;;;;;;4144868;28;20029;-79
2021/04/04 08:34:19;;;;;;;5.10;3.50;;;7.40;99.90;;;;;;4144315;28;20164;-81
2021/04/04 08:36:24;;;;;;;5.75;3.10;;;7.40;99.90;;;;;;4162146;28;20018;-80
2021/04/04 08:38:35;;;;;;;5.22;3.28;;;7.60;99.90;;;;;;4145215;28;20494;-81
2021/04/04 08:40:38;;;;;;;6.60;4.07;;;7.60;99.90;;;;;;4145534;28;20112;-80
2021/04/04 08:42:42;;;;;;;7.22;3.88;;;7.70;99.90;;;;;;4144902;28;20133;-82
2021/04/04 08:44:49;;;;;;;8.40;3.67;;;7.60;99.90;;;;;;4145650;28;20433;-81
2021/04/04 08:47:00;;;;;;;5.50;3.22;;;7.60;99.90;;;;;;4145280;28;20030;-81
2021/04/04 08:49:02;;;;;;;10.82;4.22;;;7.50;99.90;;;;;;4145242;28;20034;-82
2021/04/04 08:51:09;;;;;;;6.57;3.70;;;7.60;99.90;;;;;;4144219;28;20704;-82
2021/04/04 08:53:30;;;;;;;5.35;3.50;;;7.60;99.90;;;;;;4127613;28;20273;-79
2021/04/04 08:55:31;;;;;;;6.00;3.10;;;7.70;99.90;;;;;;4156051;28;20033;-80
2021/04/04 08:57:49;;;;;;;6.65;3.72;;;7.80;99.90;;;;;;4145579;28;20037;-80
2021/04/04 08:59:54;;;;;;;6.57;3.00;;;7.80;99.90;;;;;;4144448;28;20068;-79
2021/04/04 09:02:04;;;;;;;5.45;3.67;;;7.80;99.90;;;;;;4144694;28;20022;-81
2021/04/04 09:04:07;;;;;;;21.20;4.05;;;7.70;99.90;;;;;;4141166;28;20121;-82
2021/04/04 09:06:09;;;;;;;8.02;3.85;;;7.80;99.90;;;;;;4145145;28;20033;-83
2021/04/04 09:08:13;;;;;;;7.50;4.20;;;7.90;99.90;;;;;;4144144;28;20813;-84
2021/04/04 09:10:16;;;;;;;4.38;3.40;;;7.90;99.90;;;;;;4160991;28;20034;-80
2021/04/04 09:12:20;;;;;;;7.97;3.30;;;7.90;99.90;;;;;;4143352;28;20055;-80
2021/04/04 09:14:23;;;;;;;7.20;3.90;;;8.00;99.90;;;;;;4144079;28;20030;-82
2021/04/04 09:16:24;;;;;;;5.82;3.97;;;8.10;99.90;;;;;;4161952;28;20496;-80
2021/04/04 09:18:26;;;;;;;9.00;3.70;;;8.20;99.90;;;;;;4156096;28;20068;-80
2021/04/04 09:20:47;;;;;;;7.33;3.53;;;8.30;99.90;;;;;;4144372;28;20038;-81
2021/04/04 09:22:49;;;;;;;4.55;3.17;;;8.30;99.90;;;;;;4144195;28;20049;-81
2021/04/04 09:25:02;;;;;;;7.15;4.45;;;8.10;99.90;;;;;;4163833;28;20330;-82
2021/04/04 09:27:04;;;;;;;8.38;4.40;;;8.10;99.90;;;;;;4144068;28;20037;-80
2021/04/04 09:29:11;;;;;;;7.18;3.95;;;8.10;99.90;;;;;;4161581;28;20033;-82
2021/04/04 09:31:33;;;;;;;5.28;4.13;;;8.00;99.90;;;;;;4161668;28;20072;-80
2021/04/04 09:33:37;;;;;;;4.40;2.95;;;8.20;99.90;;;;;;4144456;28;20034;-81
2021/04/04 09:35:39;;;;;;;8.23;4.30;;;8.20;99.90;;;;;;4144691;28;20038;-80
2021/04/04 09:37:41;;;;;;;9.73;4.10;;;8.30;99.90;;;;;;4144402;28;20038;-79
2021/04/04 09:39:42;;;;;;;9.35;4.10;;;8.40;99.90;;;;;;4162072;28;20260;-80
2021/04/04 09:41:45;;;;;;;7.57;4.28;;;8.40;99.90;;;;;;4143860;28;20092;-81
2021/04/04 09:44:02;;;;;;;10.13;4.93;;;8.50;99.90;;;;;;4144481;28;20030;-80
2021/04/04 09:46:05;;;;;;;8.98;4.43;;;8.60;99.90;;;;;;4127539;28;20061;-80
2021/04/04 09:48:23;;;;;;;7.63;3.83;;;8.70;99.90;;;;;;4150439;28;20034;-80
2021/04/04 09:50:30;;;;;;;13.20;4.63;;;8.60;99.90;;;;;;4144062;28;20082;-81
2021/04/04 09:52:32;;;;;;;10.30;4.43;;;8.50;99.90;;;;;;4161421;28;20025;-83
2021/04/04 09:54:59;;;;;;;7.10;3.50;;;8.60;99.90;;;;;;4142631;28;20489;-81
2021/04/04 09:57:00;;;;;;;13.20;4.38;;;8.50;99.90;;;;;;4143728;28;20049;-80
2021/04/04 09:59:01;;;;;;;8.88;4.68;;;8.50;99.90;;;;;;4161697;28;20034;-79
2021/04/04 10:01:19;;;;;;;10.90;4.47;;;8.50;99.90;;;;;;4161140;28;20034;-81
2021/04/04 10:03:20;;;;;;;8.57;4.43;;;8.30;99.90;;;;;;4160147;28;20029;-82
2021/04/04 10:05:32;;;;;;;8.40;4.68;;;8.40;99.90;;;;;;4146021;28;20070;-82
2021/04/04 10:07:33;;;;;;;14.50;5.80;;;8.50;99.90;;;;;;4162742;28;20025;-81
2021/04/04 10:09:40;;;;;;;10.18;5.10;;;8.60;99.90;;;;;;4145383;28;20030;-81
2021/04/04 10:11:41;;;;;;;9.95;5.60;;;8.60;99.90;;;;;;4163332;28;20033;-82
2021/04/04 10:13:41;;;;;;;7.57;5.22;;;8.70;99.90;;;;;;4146107;28;20076;-81
2021/04/04 10:15:46;;;;;;;12.05;5.25;;;8.80;99.90;;;;;;4163679;28;20148;-81
2021/04/04 10:17:58;;;;;;;11.05;4.28;;;9.00;99.90;;;;;;4163434;28;20034;-81
2021/04/04 10:20:03;;;;;;;9.43;5.20;;;9.00;99.90;;;;;;4145242;28;20144;-81
2021/04/04 10:22:04;;;;;;;9.95;4.93;;;9.20;99.90;;;;;;4163075;28;20067;-80
2021/04/04 10:24:30;;;;;;;14.23;6.22;;;9.50;99.90;;;;;;4163546;28;20037;-81
2021/04/04 10:26:30;;;;;;;11.98;4.75;;;9.50;99.90;;;;;;4161601;28;20025;-80
2021/04/04 10:28:55;;;;;;;11.90;5.32;;;9.50;99.90;;;;;;4145510;28;20032;-80
2021/04/04 10:30:56;;;;;;;10.65;5.38;;;9.50;99.90;;;;;;4144610;28;20050;-82
2021/04/04 10:33:16;;;;;;;10.88;5.40;;;9.50;99.90;;;;;;4163428;28;20037;-82
2021/04/04 10:35:31;;;;;;;11.85;5.45;;;9.40;99.90;;;;;;4125195;28;20489;-80
2021/04/04 10:37:32;;;;;;;14.13;5.65;;;9.50;99.90;;;;;;4145952;28;20053;-81
2021/04/04 10:39:33;;;;;;;14.68;6.00;;;9.50;99.90;;;;;;4145267;28;20041;-79
2021/04/04 10:41:37;;;;;;;11.35;6.32;;;9.60;99.90;;;;;;4163691;28;20041;-80
2021/04/04 10:43:47;;;;;;;14.13;6.85;;;9.70;99.90;;;;;;4138920;28;20042;-81
2021/04/04 10:45:54;;;;;;;16.60;6.53;;;9.60;99.90;;;;;;4143694;28;20042;-80
2021/04/04 10:48:05;;;;;;;15.00;7.55;;;9.60;99.90;;;;;;4162441;28;20033;-79
2021/04/04 10:50:10;;;;;;;16.30;7.43;;;9.60;99.90;;;;;;4141479;28;20032;-80
2021/04/04 10:52:10;;;;;;;14.18;6.30;;;9.70;99.90;;;;;;4128876;28;20038;-79
2021/04/04 10:54:11;;;;;;;15.02;7.70;;;9.80;99.90;;;;;;4146050;28;20404;-80
2021/04/04 10:56:15;;;;;;;10.93;6.05;;;9.90;99.90;;;;;;4145393;28;20034;-79
2021/04/04 10:58:36;;;;;;;13.02;7.20;;;9.90;99.90;;;;;;4164048;28;20029;-78
2021/04/04 11:00:37;;;;;;;10.23;6.82;;;9.80;99.90;;;;;;4146057;28;20469;-79
2021/04/04 11:02:38;;;;;;;14.02;6.45;;;10.00;99.90;;;;;;4145442;28;20037;-80
2021/04/04 11:04:40;;;;;;;13.88;6.05;;;9.90;99.90;;;;;;4163571;28;20068;-79
2021/04/04 11:06:42;;;;;;;13.15;6.30;;;11.30;99.90;;;;;;4163402;28;20025;-81
2021/04/04 11:08:43;;;;;;;19.40;7.25;;;10.10;99.90;;;;;;4144006;28;20030;-78